createdAt,value
2022-10-13T00:01:16.037Z,7.27
2022-10-13T00:03:47.168Z,7.35
2022-10-13T00:06:18.946Z,7.32
2022-10-13T00:08:46.675Z,7.24
2022-10-13T00:11:21.515Z,7.24
2022-10-13T00:13:50.251Z,7.21
2022-10-13T00:16:21.991Z,7.09
2022-10-13T00:18:51.946Z,7.08
2022-10-13T00:21:24.338Z,7.20
2022-10-13T00:23:55.537Z,7.24
2022-10-13T00:26:24.977Z,7.20
2022-10-13T00:28:53.316Z,7.27
2022-10-13T00:31:25.597Z,7.18
2022-10-13T00:33:55.757Z,7.22
2022-10-13T00:36:24.258Z,7.01
2022-10-13T00:38:52.945Z,7.06
2022-10-13T00:41:27.266Z,7.02
2022-10-13T00:44:26.544Z,6.99
2022-10-13T00:46:56.251Z,6.91
2022-10-13T00:49:26.040Z,7.07
2022-10-13T00:51:53.217Z,7.05
2022-10-13T00:54:23.887Z,6.95
2022-10-13T00:56:54.813Z,7.06
2022-10-13T00:59:29.035Z,7.03
2022-10-13T01:01:59.411Z,6.99
2022-10-13T01:04:33.024Z,6.77
2022-10-13T01:07:01.401Z,6.94
2022-10-13T01:09:35.485Z,6.71
2022-10-13T01:12:23.765Z,6.61
2022-10-13T01:15:16.374Z,6.59
2022-10-13T01:17:59.682Z,6.55
2022-10-13T01:20:53.757Z,6.70
2022-10-13T01:24:30.846Z,6.69
2022-10-13T01:27:43.416Z,6.55
2022-10-13T01:30:14.871Z,6.68
2022-10-13T01:33:06.250Z,6.62
2022-10-13T01:36:01.076Z,6.60
2022-10-13T01:38:49.894Z,6.67
2022-10-13T01:41:35.798Z,6.74
2022-10-13T01:44:05.170Z,6.76
2022-10-13T01:46:38.163Z,6.73
2022-10-13T01:49:14.029Z,6.77
2022-10-13T01:51:42.623Z,6.42
2022-10-13T01:54:09.894Z,6.54
2022-10-13T01:56:37.056Z,6.70
2022-10-13T01:59:13.151Z,6.69
2022-10-13T02:02:15.987Z,6.70
2022-10-13T02:05:40.071Z,6.65
2022-10-13T02:08:44.626Z,6.46
2022-10-13T02:11:18.394Z,6.46
2022-10-13T02:13:59.744Z,6.51
2022-10-13T02:16:34.121Z,6.39
2022-10-13T02:19:06.806Z,6.24
2022-10-13T02:21:37.308Z,6.32
2022-10-13T02:24:09.334Z,6.28
2022-10-13T02:26:39.908Z,6.35
2022-10-13T02:29:16.275Z,6.42
2022-10-13T02:31:46.604Z,6.53
2022-10-13T02:34:17.084Z,6.35
2022-10-13T02:36:44.178Z,6.31
2022-10-13T02:39:12.065Z,6.41
2022-10-13T02:41:39.548Z,6.53
2022-10-13T02:44:07.459Z,6.56
2022-10-13T02:46:35.473Z,6.62
2022-10-13T02:49:02.579Z,6.32
2022-10-13T02:51:29.712Z,6.43
2022-10-13T02:53:56.938Z,6.18
2022-10-13T02:56:24.041Z,5.81
2022-10-13T02:58:52.040Z,6.03
2022-10-13T03:01:21.416Z,6.08
2022-10-13T03:03:48.480Z,6.21
2022-10-13T03:06:15.681Z,6.22
2022-10-13T03:08:45.211Z,6.25
2022-10-13T03:11:12.407Z,6.28
2022-10-13T03:13:39.551Z,6.12
2022-10-13T03:16:09.698Z,6.29
2022-10-13T03:18:36.899Z,6.24
2022-10-13T03:21:07.020Z,6.29
2022-10-13T03:23:34.440Z,6.34
2022-10-13T03:26:02.186Z,6.34
2022-10-13T03:28:29.408Z,6.36
2022-10-13T03:31:06.215Z,6.40
2022-10-13T03:33:33.320Z,6.31
2022-10-13T03:36:02.439Z,6.37
2022-10-13T03:38:31.329Z,6.15
2022-10-13T03:40:58.654Z,5.79
2022-10-13T03:43:25.806Z,5.79
2022-10-13T03:45:58.222Z,6.01
2022-10-13T03:48:26.095Z,5.94
2022-10-13T03:50:53.220Z,6.04
2022-10-13T03:53:23.015Z,6.17
2022-10-13T03:55:56.312Z,5.67
2022-10-13T03:58:25.563Z,5.46
2022-10-13T04:00:53.007Z,5.45
2022-10-13T04:03:20.676Z,5.36
2022-10-13T04:05:48.113Z,5.46
2022-10-13T04:08:15.489Z,5.35
2022-10-13T04:10:45.352Z,5.38
2022-10-13T04:13:14.814Z,5.59
2022-10-13T04:15:41.875Z,5.52
2022-10-13T04:18:09.098Z,5.36
2022-10-13T04:20:39.111Z,5.14
2022-10-13T04:23:07.432Z,5.15
2022-10-13T04:25:39.218Z,5.03
2022-10-13T04:28:08.322Z,5.26
2022-10-13T04:30:35.712Z,5.37
2022-10-13T04:33:03.457Z,5.55
2022-10-13T04:35:30.910Z,5.14
2022-10-13T04:38:00.608Z,4.97
2022-10-13T04:40:30.403Z,4.98
2022-10-13T04:42:57.482Z,5.32
2022-10-13T04:45:27.329Z,4.98
2022-10-13T04:47:54.438Z,4.92
2022-10-13T04:50:21.491Z,4.93
2022-10-13T04:52:50.682Z,4.83
2022-10-13T04:55:17.956Z,4.73
2022-10-13T04:57:45.029Z,4.74
2022-10-13T05:00:12.869Z,4.71
2022-10-13T05:02:40.041Z,4.90
2022-10-13T05:05:08.011Z,4.90
2022-10-13T05:07:35.832Z,5.00
2022-10-13T05:10:03.325Z,5.13
2022-10-13T05:12:30.786Z,5.21
2022-10-13T05:14:58.987Z,4.99
2022-10-13T05:17:26.243Z,4.98
2022-10-13T05:19:53.456Z,4.92
2022-10-13T05:22:20.910Z,5.02
2022-10-13T05:24:48.533Z,5.13
2022-10-13T05:27:16.173Z,5.23
2022-10-13T05:29:43.419Z,4.82
2022-10-13T05:32:10.543Z,5.12
2022-10-13T05:34:37.831Z,5.12
2022-10-13T05:37:05.134Z,5.25
2022-10-13T05:39:32.321Z,5.28
2022-10-13T05:42:00.514Z,5.18
2022-10-13T05:44:27.626Z,5.20
2022-10-13T05:46:54.895Z,5.27
2022-10-13T05:49:22.087Z,5.50
2022-10-13T05:51:55.091Z,5.61
2022-10-13T05:54:31.316Z,5.85
2022-10-13T05:57:28.488Z,6.28
2022-10-13T06:00:00.990Z,6.17
2022-10-13T06:02:36.629Z,6.39
2022-10-13T06:05:06.601Z,6.63
2022-10-13T06:07:34.057Z,6.92
2022-10-13T06:10:02.068Z,7.05
2022-10-13T06:12:29.205Z,7.42
2022-10-13T06:14:56.442Z,7.88
2022-10-13T06:17:26.066Z,8.25
2022-10-13T06:19:53.288Z,8.85
2022-10-13T06:22:23.232Z,9.72
2022-10-13T06:24:50.514Z,10.21
2022-10-13T06:27:20.096Z,11.08
2022-10-13T06:29:47.197Z,10.91
2022-10-13T06:32:14.412Z,11.94
2022-10-13T06:34:41.596Z,12.24
2022-10-13T06:37:09.295Z,11.58
2022-10-13T06:39:36.417Z,12.56
2022-10-13T06:42:03.901Z,11.43
2022-10-13T06:44:32.486Z,12.81
2022-10-13T06:47:01.036Z,13.29
2022-10-13T06:49:28.044Z,13.71
2022-10-13T06:51:56.872Z,13.41
2022-10-13T06:54:23.958Z,13.79
2022-10-13T06:56:51.449Z,14.48
2022-10-13T06:59:18.554Z,14.19
2022-10-13T07:01:45.621Z,14.79
2022-10-13T07:04:12.862Z,14.98
2022-10-13T07:06:40.026Z,15.26
2022-10-13T07:09:10.517Z,16.12
2022-10-13T07:11:37.518Z,16.82
2022-10-13T07:14:04.761Z,17.44
2022-10-13T07:16:34.941Z,16.53
2022-10-13T07:19:02.087Z,16.48
2022-10-13T07:21:31.917Z,16.47
2022-10-13T07:26:34.109Z,18.55
2022-10-13T07:29:02.136Z,17.87
2022-10-13T07:31:29.610Z,18.31
2022-10-13T07:34:01.569Z,18.50
2022-10-13T07:36:32.680Z,18.32
2022-10-13T07:39:04.299Z,18.65
2022-10-13T07:41:31.400Z,18.84
2022-10-13T07:43:59.041Z,19.45
2022-10-13T07:46:26.327Z,19.78
2022-10-13T07:48:58.921Z,19.26
2022-10-13T07:51:26.068Z,19.93
2022-10-13T07:53:55.570Z,19.65
2022-10-13T07:56:22.634Z,20.59
2022-10-13T07:58:49.757Z,21.69
2022-10-13T08:01:18.101Z,19.87
2022-10-13T08:03:49.835Z,20.05
2022-10-13T08:06:18.427Z,19.72
2022-10-13T08:08:45.850Z,20.15
2022-10-13T08:11:16.952Z,20.26
2022-10-13T08:13:52.073Z,20.14
2022-10-13T08:16:19.888Z,20.50
2022-10-13T08:18:50.641Z,20.36
2022-10-13T08:24:11.048Z,20.42
2022-10-13T08:26:44.274Z,20.81
2022-10-13T08:29:28.190Z,19.61
2022-10-13T08:31:56.312Z,18.60
2022-10-13T08:34:27.204Z,19.15
2022-10-13T08:36:56.468Z,18.20
2022-10-13T08:39:24.787Z,18.62
2022-10-13T08:41:52.591Z,20.01
2022-10-13T08:47:43.900Z,19.57
2022-10-13T08:50:23.309Z,17.18
2022-10-13T08:53:00.812Z,17.57
2022-10-13T08:55:42.211Z,17.46
2022-10-13T08:58:28.524Z,18.26
2022-10-13T09:01:20.726Z,18.68
2022-10-13T09:04:08.341Z,18.42
2022-10-13T09:06:51.667Z,19.35
2022-10-13T09:09:19.967Z,18.31
2022-10-13T09:11:50.790Z,20.30
2022-10-13T09:14:27.391Z,20.27
2022-10-13T09:16:58.075Z,19.35
2022-10-13T09:19:34.215Z,19.21
2022-10-13T09:22:28.585Z,20.08
2022-10-13T09:25:07.871Z,19.22
2022-10-13T09:28:00.041Z,19.45
2022-10-13T09:30:40.715Z,19.59
2022-10-13T09:33:13.667Z,19.89
2022-10-13T09:36:08.115Z,17.92
2022-10-13T09:38:35.372Z,17.78
2022-10-13T09:41:10.284Z,17.96
2022-10-13T09:44:00.820Z,17.87
2022-10-13T09:46:38.397Z,18.31
2022-10-13T09:49:34.825Z,18.31
2022-10-13T09:52:11.992Z,17.65
2022-10-13T09:54:56.303Z,19.00
2022-10-13T09:57:35.993Z,18.88
2022-10-13T10:00:15.295Z,21.16
2022-10-13T10:02:57.122Z,21.32
2022-10-13T10:05:50.851Z,20.31
2022-10-13T10:09:08.631Z,20.08
2022-10-13T10:11:41.580Z,17.18
2022-10-13T10:14:38.805Z,19.21
2022-10-13T10:17:43.928Z,19.14
2022-10-13T10:20:45.658Z,17.85
2022-10-13T10:23:47.082Z,18.03
2022-10-13T10:26:41.197Z,18.32
2022-10-13T10:29:14.991Z,17.55
2022-10-13T10:31:54.056Z,19.06
2022-10-13T10:35:14.138Z,18.42
2022-10-13T10:38:15.357Z,19.14
2022-10-13T10:41:08.417Z,19.10
2022-10-13T10:44:10.969Z,18.51
2022-10-13T10:46:50.828Z,20.10
2022-10-13T10:49:30.450Z,20.17
2022-10-13T10:51:59.778Z,19.19
2022-10-13T10:55:07.897Z,18.52
2022-10-13T10:57:59.420Z,18.22
2022-10-13T11:03:24.598Z,18.10
2022-10-13T11:05:57.626Z,19.01
2022-10-13T11:08:47.049Z,18.86
2022-10-13T11:11:25.032Z,18.69
2022-10-13T11:13:57.662Z,18.00
2022-10-13T11:16:34.290Z,18.42
2022-10-13T11:19:25.377Z,18.39
2022-10-13T11:21:55.422Z,18.31
2022-10-13T11:24:34.918Z,19.13
2022-10-13T11:27:07.991Z,17.87
2022-10-13T11:29:44.406Z,17.73
2022-10-13T11:32:35.728Z,17.90
2022-10-13T11:35:05.825Z,18.35
2022-10-13T11:38:07.757Z,18.50
2022-10-13T11:40:59.911Z,19.00
2022-10-13T11:44:00.359Z,17.83
2022-10-13T11:46:34.876Z,19.03
2022-10-13T11:49:46.164Z,19.31
2022-10-13T11:52:47.923Z,19.99
2022-10-13T11:55:53.738Z,20.15
2022-10-13T11:58:33.136Z,20.05
2022-10-13T12:01:06.384Z,20.85
2022-10-13T12:03:42.057Z,20.03
2022-10-13T12:06:36.955Z,19.65
2022-10-13T12:09:21.669Z,18.26
2022-10-13T12:12:14.261Z,18.43
2022-10-13T12:14:48.170Z,18.91
2022-10-13T12:17:27.583Z,19.34
2022-10-13T12:19:58.641Z,18.94
2022-10-13T12:22:27.744Z,18.08
2022-10-13T12:25:05.515Z,18.89
2022-10-13T12:27:48.145Z,19.41
2022-10-13T12:30:28.107Z,19.20
2022-10-13T12:32:59.623Z,19.44
2022-10-13T12:35:33.914Z,20.07
2022-10-13T12:38:14.366Z,20.58
2022-10-13T12:40:41.443Z,18.97
2022-10-13T12:43:12.882Z,18.13
2022-10-13T12:45:44.594Z,19.61
2022-10-13T12:48:33.098Z,19.71
2022-10-13T12:51:22.578Z,21.13
2022-10-13T12:53:49.610Z,20.29
2022-10-13T12:56:31.768Z,20.01
2022-10-13T12:59:01.796Z,19.20
2022-10-13T13:01:35.991Z,19.90
2022-10-13T13:04:22.411Z,18.64
2022-10-13T13:07:03.172Z,18.97
2022-10-13T13:09:36.884Z,19.35
2022-10-13T13:12:13.240Z,18.67
2022-10-13T13:14:48.612Z,19.03
2022-10-13T13:17:38.543Z,18.48
2022-10-13T13:20:37.981Z,18.25
2022-10-13T13:23:05.799Z,18.23
2022-10-13T13:25:32.782Z,17.02
2022-10-13T13:28:03.391Z,17.91
2022-10-13T13:30:30.547Z,18.13
2022-10-13T13:32:57.641Z,18.10
2022-10-13T13:35:24.593Z,18.37
2022-10-13T13:37:53.190Z,17.79
2022-10-13T13:40:24.387Z,18.08
2022-10-13T13:42:51.695Z,17.53
2022-10-13T13:45:26.958Z,17.97
2022-10-13T13:47:59.547Z,17.34
2022-10-13T13:50:38.290Z,17.16
2022-10-13T13:53:05.936Z,16.99
2022-10-13T13:55:33.099Z,17.11
2022-10-13T13:58:00.099Z,16.50
2022-10-13T14:00:27.398Z,16.85
2022-10-13T14:02:55.096Z,16.60
2022-10-13T14:05:22.199Z,16.75
2022-10-13T14:07:49.340Z,16.95
2022-10-13T14:10:16.508Z,17.08
2022-10-13T14:12:43.760Z,17.01
2022-10-13T14:15:11.218Z,17.76
2022-10-13T14:17:43.327Z,17.34
2022-10-13T14:20:10.600Z,16.69
2022-10-13T14:22:39.333Z,16.86
2022-10-13T14:25:07.644Z,17.25
2022-10-13T14:27:35.651Z,16.53
2022-10-13T14:30:04.740Z,16.42
2022-10-13T14:32:31.797Z,16.66
2022-10-13T14:34:58.850Z,16.29
2022-10-13T14:37:30.314Z,16.43
2022-10-13T14:39:59.896Z,15.75
2022-10-13T14:42:26.911Z,15.88
2022-10-13T14:44:53.916Z,15.54
2022-10-13T14:47:21.326Z,15.72
2022-10-13T14:49:48.663Z,15.66
2022-10-13T14:52:15.584Z,15.60
2022-10-13T14:54:44.971Z,15.69
2022-10-13T14:57:15.961Z,15.49
2022-10-13T14:59:46.059Z,15.16
2022-10-13T15:02:13.944Z,15.32
2022-10-13T15:04:40.979Z,15.52
2022-10-13T15:07:08.369Z,15.11
2022-10-13T15:09:52.439Z,15.37
2022-10-13T15:12:25.020Z,14.99
2022-10-13T15:14:52.029Z,14.93
2022-10-13T15:17:19.090Z,15.17
2022-10-13T15:19:46.235Z,14.93
2022-10-13T15:22:13.303Z,14.79
2022-10-13T15:24:40.207Z,14.62
2022-10-13T15:27:07.486Z,14.39
2022-10-13T15:29:34.474Z,14.55
2022-10-13T15:32:12.298Z,14.57
2022-10-13T15:34:42.269Z,14.44
2022-10-13T15:37:11.743Z,14.63
2022-10-13T15:39:39.093Z,14.50
2022-10-13T15:42:06.168Z,14.30
2022-10-13T15:44:51.293Z,14.67
2022-10-13T15:47:20.242Z,14.68
2022-10-13T15:49:47.237Z,14.67
2022-10-13T15:52:16.824Z,14.48
2022-10-13T15:54:43.929Z,14.86
2022-10-13T15:57:10.913Z,14.94
2022-10-13T15:59:37.942Z,14.29
2022-10-13T16:02:04.993Z,14.38
2022-10-13T16:04:37.130Z,14.53
2022-10-13T16:07:04.539Z,14.72
2022-10-13T16:09:31.728Z,14.50
2022-10-13T16:11:58.878Z,14.82
2022-10-13T16:14:25.914Z,14.83
2022-10-13T16:16:52.925Z,15.02
2022-10-13T16:19:20.431Z,14.33
2022-10-13T16:21:47.479Z,14.48
2022-10-13T16:24:14.505Z,13.95
2022-10-13T16:26:41.592Z,13.92
2022-10-13T16:29:08.557Z,14.04
2022-10-13T16:31:35.704Z,13.83
2022-10-13T16:34:03.501Z,13.89
2022-10-13T16:36:30.629Z,13.93
2022-10-13T16:38:58.717Z,13.93
2022-10-13T16:41:25.884Z,13.84
2022-10-13T16:43:53.019Z,14.06
2022-10-13T16:46:20.679Z,13.72
2022-10-13T16:48:48.603Z,13.95
2022-10-13T16:51:25.848Z,14.26
2022-10-13T16:54:03.618Z,14.04
2022-10-13T16:56:31.612Z,14.11
2022-10-13T16:59:05.338Z,13.78
2022-10-13T17:01:34.660Z,13.91
2022-10-13T17:04:03.016Z,13.95
2022-10-13T17:06:30.451Z,14.06
2022-10-13T17:08:59.733Z,13.91
2022-10-13T17:11:30.114Z,13.77
2022-10-13T17:13:58.790Z,14.13
2022-10-13T17:16:27.036Z,14.06
2022-10-13T17:18:55.207Z,14.02
2022-10-13T17:21:22.679Z,13.76
2022-10-13T17:23:50.801Z,13.63
2022-10-13T17:26:19.132Z,13.97
2022-10-13T17:28:46.598Z,13.72
2022-10-13T17:31:21.160Z,13.43
2022-10-13T17:33:50.146Z,13.26
2022-10-13T17:36:27.567Z,13.34
2022-10-13T17:38:59.719Z,13.40
2022-10-13T17:41:26.697Z,13.52
2022-10-13T17:43:53.755Z,13.61
2022-10-13T17:46:39.880Z,13.55
2022-10-13T17:49:10.663Z,13.46
2022-10-13T17:51:38.760Z,13.44
2022-10-13T17:54:06.841Z,13.55
2022-10-13T17:56:40.825Z,13.68
2022-10-13T17:59:09.827Z,13.75
2022-10-13T18:01:37.487Z,13.64
2022-10-13T18:04:11.284Z,13.48
2022-10-13T18:06:45.332Z,13.48
2022-10-13T18:09:26.102Z,13.44
2022-10-13T18:11:54.509Z,13.47
2022-10-13T18:14:24.312Z,13.60
2022-10-13T18:16:52.624Z,13.92
2022-10-13T18:19:21.345Z,13.85
2022-10-13T18:21:49.077Z,13.80
2022-10-13T18:24:16.212Z,13.89
2022-10-13T18:26:43.197Z,13.78
2022-10-13T18:29:14.027Z,13.47
2022-10-13T18:31:42.230Z,13.58
2022-10-13T18:34:17.089Z,13.25
2022-10-13T18:36:54.950Z,13.19
2022-10-13T18:39:27.717Z,13.09
2022-10-13T18:41:57.720Z,13.18
2022-10-13T18:44:25.238Z,12.91
2022-10-13T18:46:53.888Z,12.95
2022-10-13T18:49:31.060Z,12.93
2022-10-13T18:51:59.876Z,12.66
2022-10-13T18:54:28.017Z,12.68
2022-10-13T18:56:55.100Z,12.70
2022-10-13T18:59:23.502Z,12.75
2022-10-13T19:01:52.739Z,12.64
2022-10-13T19:04:21.532Z,12.69
2022-10-13T19:06:48.568Z,12.78
2022-10-13T19:09:17.520Z,12.85
2022-10-13T19:11:44.932Z,12.81
2022-10-13T19:14:13.981Z,12.71
2022-10-13T19:16:44.117Z,12.81
2022-10-13T19:19:13.914Z,12.98
2022-10-13T19:21:41.878Z,12.97
2022-10-13T19:24:09.961Z,12.93
2022-10-13T19:26:37.782Z,12.90
2022-10-13T19:29:12.622Z,12.84
2022-10-13T19:31:41.828Z,12.93
2022-10-13T19:34:10.936Z,12.97
2022-10-13T19:36:45.457Z,12.65
2022-10-13T19:39:24.366Z,12.23
2022-10-13T19:41:54.516Z,11.95
2022-10-13T19:44:23.803Z,11.98
2022-10-13T19:46:52.459Z,11.79
2022-10-13T19:49:21.991Z,11.80
2022-10-13T19:51:49.965Z,11.74
2022-10-13T19:54:20.720Z,11.74
2022-10-13T19:56:49.107Z,11.72
2022-10-13T19:59:17.800Z,11.84
2022-10-13T20:01:44.943Z,12.04
2022-10-13T20:04:12.411Z,12.06
2022-10-13T20:06:39.524Z,12.32
2022-10-13T20:09:07.007Z,12.24
2022-10-13T20:11:34.064Z,12.26
2022-10-13T20:14:01.093Z,12.19
2022-10-13T20:16:28.285Z,12.38
2022-10-13T20:18:58.843Z,12.62
2022-10-13T20:21:28.082Z,12.55
2022-10-13T20:23:55.841Z,12.69
2022-10-13T20:26:23.647Z,12.65
2022-10-13T20:28:52.675Z,12.67
2022-10-13T20:31:22.311Z,12.87
2022-10-13T20:33:54.254Z,12.97
2022-10-13T20:36:21.327Z,12.98
2022-10-13T20:38:49.360Z,12.88
2022-10-13T20:41:23.714Z,12.99
2022-10-13T20:43:52.469Z,12.82
2022-10-13T20:46:21.777Z,12.87
2022-10-13T20:51:37.162Z,12.79
2022-10-13T20:54:04.388Z,12.23
2022-10-13T20:56:31.636Z,12.13
2022-10-13T20:59:04.439Z,12.28
2022-10-13T21:01:31.585Z,12.14
2022-10-13T21:03:58.864Z,12.15
2022-10-13T21:06:27.132Z,12.14
2022-10-13T21:08:54.707Z,12.20
2022-10-13T21:11:23.718Z,12.17
2022-10-13T21:13:52.097Z,12.14
2022-10-13T21:16:27.343Z,12.15
2022-10-13T21:18:57.540Z,12.06
2022-10-13T21:21:28.984Z,12.08
2022-10-13T21:23:59.754Z,12.09
2022-10-13T21:26:29.337Z,12.12
2022-10-13T21:29:00.551Z,11.99
2022-10-13T21:31:28.729Z,11.99
2022-10-13T21:33:56.416Z,11.77
2022-10-13T21:36:30.498Z,11.81
2022-10-13T21:39:04.516Z,11.63
2022-10-13T21:41:31.840Z,11.71
2022-10-13T21:43:59.199Z,11.83
2022-10-13T21:46:29.346Z,11.63
2022-10-13T21:48:59.347Z,11.68
2022-10-13T21:51:36.153Z,11.40
2022-10-13T21:54:07.967Z,11.47
2022-10-13T21:56:35.854Z,11.50
2022-10-13T21:59:03.733Z,11.11
2022-10-13T22:01:34.384Z,11.35
2022-10-13T22:04:02.508Z,11.01
2022-10-13T22:06:32.235Z,11.19
2022-10-13T22:09:02.365Z,11.25
2022-10-13T22:11:32.555Z,11.28
2022-10-13T22:14:00.369Z,11.18
2022-10-13T22:16:38.066Z,11.23
2022-10-13T22:19:06.717Z,11.16
2022-10-13T22:21:38.669Z,10.95
2022-10-13T22:24:09.641Z,11.03
2022-10-13T22:26:39.057Z,10.68
2022-10-13T22:29:07.972Z,10.55
2022-10-13T22:31:36.083Z,10.51
2022-10-13T22:34:04.477Z,10.33
2022-10-13T22:36:31.907Z,10.53
2022-10-13T22:39:02.894Z,10.65
2022-10-13T22:41:31.227Z,10.59
2022-10-13T22:43:59.546Z,10.51
2022-10-13T22:46:31.995Z,10.47
2022-10-13T22:48:59.775Z,10.53
2022-10-13T22:51:29.733Z,10.65
2022-10-13T22:53:57.050Z,10.60
2022-10-13T22:56:28.164Z,10.52
2022-10-13T22:59:07.549Z,10.11
2022-10-13T23:01:35.503Z,10.15
2022-10-13T23:04:02.613Z,9.88
2022-10-13T23:06:32.774Z,9.97
2022-10-13T23:09:06.201Z,9.95
2022-10-13T23:11:34.035Z,10.22
2022-10-13T23:14:02.019Z,10.07
2022-10-13T23:16:30.514Z,10.04
2022-10-13T23:18:57.696Z,10.17
2022-10-13T23:21:28.389Z,10.31
2022-10-13T23:24:02.350Z,10.12
2022-10-13T23:26:30.435Z,9.86
2022-10-13T23:28:58.650Z,10.17
2022-10-13T23:31:29.603Z,10.26
2022-10-13T23:33:57.312Z,9.74
2022-10-13T23:36:30.351Z,9.74
2022-10-13T23:39:04.603Z,9.72
2022-10-13T23:41:32.273Z,9.82
2022-10-13T23:43:59.426Z,9.53
2022-10-13T23:46:26.634Z,9.99
2022-10-13T23:48:53.691Z,9.94
2022-10-13T23:51:22.199Z,9.67
2022-10-13T23:53:50.075Z,9.62
2022-10-13T23:56:17.706Z,9.49
2022-10-13T23:58:45.180Z,9.60
